Time;durP1;ratioP1;P1;durP2;ratioP2;P2;SDS_P1;SDS_P2;PMS_P1;PMS_P2;Temp;Humidity;BMP_temperature;BMP_pressure;BME280_temperature;BME280_humidity;BME280_pressure;Samples;Min_cycle;Max_cycle;Signal;HPM_P1;HPM_P2
2022/04/26 03:38:03;;;;;;;8.30;5.80;;;;;;;25.61;49.00;99625.47;1777268;80;21544;-55
2022/04/26 03:40:30;;;;;;;9.83;6.80;;;;;;;26.26;45.52;99626.25;1778428;80;21451;-57
2022/04/26 03:42:58;;;;;;;10.43;6.37;;;;;;;27.15;42.98;99626.75;1778203;80;21034;-55
2022/04/26 03:45:26;;;;;;;10.40;6.77;;;;;;;27.65;41.38;99621.88;1777516;80;21014;-59
2022/04/26 03:47:54;;;;;;;10.80;6.73;;;;;;;28.20;39.52;99623.21;1777743;80;21035;-64
2022/04/26 03:50:22;;;;;;;8.80;6.23;;;;;;;28.73;38.26;99623.41;1778474;80;21343;-58
2022/04/26 03:52:52;;;;;;;9.47;6.63;;;;;;;29.34;36.41;99619.97;1778277;80;21250;-58
2022/04/26 03:55:20;;;;;;;7.47;5.83;;;;;;;29.56;35.46;99624.83;1777725;80;20947;-58
2022/04/26 03:57:48;;;;;;;8.80;6.23;;;;;;;29.86;34.63;99624.84;1777721;80;21332;-58
2022/04/26 04:00:16;;;;;;;8.67;6.57;;;;;;;30.33;33.61;99619.25;1766854;80;21487;-56
2022/04/26 04:02:45;;;;;;;8.50;6.10;;;;;;;30.87;32.83;99628.61;1778572;80;20999;-56
2022/04/26 04:05:12;;;;;;;10.33;6.30;;;;;;;31.46;31.64;99624.19;1777422;80;21141;-59
2022/04/26 04:07:41;;;;;;;8.10;6.47;;;;;;;31.81;30.97;99625.80;1778070;80;21513;-62
2022/04/26 04:10:11;;;;;;;8.85;7.08;;;;;;;32.06;30.13;99639.26;1777691;80;21783;-57
2022/04/26 04:12:40;;;;;;;7.22;6.20;;;;;;;32.42;29.74;99635.65;1778841;80;21031;-56
2022/04/26 04:15:10;;;;;;;8.73;5.92;;;;;;;32.76;28.67;99634.80;1777718;80;21612;-57
2022/04/26 04:17:37;;;;;;;7.62;6.30;;;;;;;33.25;27.96;99645.28;1777919;80;21380;-56
2022/04/26 04:20:08;;;;;;;9.38;6.08;;;;;;;33.25;27.96;99645.28;1778140;80;21047;-57
2022/04/26 04:22:35;;;;;;;7.62;5.97;;;;;;;33.56;27.42;99646.59;1778751;80;21006;-56
2022/04/26 04:25:04;;;;;;;7.35;6.50;;;;;;;33.94;27.34;99638.91;1778648;80;20931;-60
2022/04/26 04:27:31;;;;;;;8.80;6.72;;;;;;;34.39;26.88;99640.41;1778137;80;21046;-56
2022/04/26 04:30:02;;;;;;;6.65;5.95;;;;;;;34.97;26.25;99647.66;1779163;80;21356;-56
2022/04/26 04:32:30;;;;;;;8.25;6.85;;;;;;;35.18;25.80;99650.52;1773317;80;20963;-56
2022/04/26 04:34:58;;;;;;;8.80;6.62;;;;;;;35.79;25.05;99645.41;1769974;80;21000;-56
2022/04/26 04:37:26;;;;;;;13.20;6.30;;;;;;;36.24;24.36;99640.94;1769784;80;21001;-57
2022/04/26 04:39:53;;;;;;;7.78;5.55;;;;;;;36.49;23.88;99644.73;1769698;80;21051;-57
2022/04/26 04:42:21;;;;;;;7.62;5.40;;;;;;;36.81;23.74;99647.53;1770452;80;21246;-57
2022/04/26 04:44:49;;;;;;;7.22;5.47;;;;;;;37.21;23.06;99648.09;1769528;80;21087;-57
2022/04/26 04:47:17;;;;;;;8.18;5.22;;;;;;;37.36;22.42;99644.30;1770111;80;20982;-61
2022/04/26 04:49:44;;;;;;;7.05;5.15;;;;;;;37.36;22.09;99642.95;1768910;80;21158;-59
2022/04/26 04:52:11;;;;;;;7.80;5.30;;;;;;;37.44;22.17;99647.29;1769448;80;21133;-59
2022/04/26 04:54:38;;;;;;;6.72;5.12;;;;;;;37.34;21.94;99641.17;1769948;80;21253;-56
2022/04/26 04:57:06;;;;;;;8.28;5.50;;;;;;;37.25;22.06;99644.81;1769175;80;20940;-56
2022/04/26 04:59:33;;;;;;;7.03;4.87;;;;;;;37.11;22.40;99647.42;1769497;80;20893;-56
2022/04/26 05:02:00;;;;;;;7.28;5.05;;;;;;;37.31;22.16;99649.30;1768201;80;21027;-59
2022/04/26 05:07:08;;;;;;;6.40;5.28;;;;;;;37.42;21.97;99649.59;1775603;78;22081;-59
2022/04/26 05:09:35;;;;;;;8.30;5.00;;;;;;;37.66;21.49;99643.34;1745352;80;20939;-62
2022/04/26 05:12:04;;;;;;;5.42;4.70;;;;;;;38.00;21.41;99644.46;1744587;81;21093;-56
2022/04/26 05:14:34;;;;;;;7.22;4.90;;;;;;;38.11;20.68;99639.84;1754126;81;20920;-56
2022/04/26 05:17:03;;;;;;;5.20;4.28;;;;;;;38.11;20.68;99639.84;1754196;81;20884;-56
2022/04/26 05:19:32;;;;;;;5.95;4.47;;;;;;;38.13;20.97;99636.16;1753722;81;21014;-57
2022/04/26 05:21:59;;;;;;;5.50;4.25;;;;;;;38.22;21.10;99636.56;1753966;81;21762;-55
2022/04/26 05:27:11;;;;;;;5.55;4.05;;;;;;;38.68;20.88;99629.88;1753057;81;20963;-60
2022/04/26 05:29:41;;;;;;;4.97;3.77;;;;;;;39.18;20.36;99625.78;1754059;80;21791;-57
2022/04/26 05:32:08;;;;;;;5.03;3.72;;;;;;;39.04;20.29;99625.02;1753815;81;21118;-56
2022/04/26 05:34:37;;;;;;;6.20;4.00;;;;;;;39.08;20.05;99622.48;1754487;81;20940;-55
2022/04/26 05:37:05;;;;;;;6.22;3.62;;;;;;;38.99;20.03;99621.34;1752988;81;21330;-58
2022/04/26 05:39:34;;;;;;;5.67;3.47;;;;;;;38.75;20.24;99616.82;1754139;81;21058;-57
2022/04/26 05:42:01;;;;;;;4.92;3.35;;;;;;;39.00;19.96;99616.08;1753925;81;21054;-56
2022/04/26 05:44:29;;;;;;;5.15;3.65;;;;;;;39.04;19.85;99616.84;1742943;81;21496;-56
2022/04/26 05:46:58;;;;;;;7.17;3.92;;;;;;;39.07;20.07;99611.98;1752925;81;21470;-60
2022/04/26 05:49:26;;;;;;;5.12;3.45;;;;;;;39.14;19.67;99605.94;1753071;81;21346;-57
2022/04/26 05:51:55;;;;;;;5.90;3.70;;;;;;;39.32;19.64;99607.27;1753480;81;21446;-56
2022/04/26 05:54:24;;;;;;;5.05;3.15;;;;;;;39.46;19.64;99612.50;1753704;81;20889;-56
2022/04/26 05:56:56;;;;;;;5.15;3.37;;;;;;;39.27;19.78;99617.81;1752941;81;20991;-61
2022/04/26 05:59:21;;;;;;;5.20;3.55;;;;;;;39.14;19.93;99614.70;1752712;81;21520;-57
2022/04/26 06:01:49;;;;;;;5.60;3.37;;;;;;;39.25;19.99;99611.40;1753779;81;21249;-57
2022/04/26 06:04:18;;;;;;;6.83;3.58;;;;;;;39.48;19.53;99614.27;1753837;80;20937;-58
2022/04/26 06:06:46;;;;;;;4.60;3.47;;;;;;;38.91;19.73;99621.93;1743342;81;21585;-57
2022/04/26 06:09:15;;;;;;;5.20;3.40;;;;;;;38.61;19.93;99629.88;1740015;81;21233;-57
2022/04/26 06:11:44;;;;;;;6.30;3.33;;;;;;;38.41;20.20;99630.80;1740755;81;20975;-57
2022/04/26 06:14:14;;;;;;;6.50;3.20;;;;;;;38.40;20.27;99638.00;1740506;82;21394;-56
2022/04/26 06:16:41;;;;;;;5.03;3.30;;;;;;;38.36;20.44;99639.94;1739543;81;21106;-58
2022/04/26 06:19:09;;;;;;;4.53;3.27;;;;;;;38.35;20.52;99632.36;1740312;82;21395;-59
2022/04/26 06:21:37;;;;;;;5.53;3.65;;;;;;;38.40;20.69;99640.72;1739969;82;21450;-56
2022/04/26 06:24:06;;;;;;;4.53;3.15;;;;;;;38.61;20.85;99635.91;1740248;82;21063;-56
2022/04/26 06:26:33;;;;;;;4.65;3.08;;;;;;;38.80;20.66;99641.00;1739891;81;21254;-62
2022/04/26 06:29:00;;;;;;;5.33;3.52;;;;;;;38.77;20.62;99642.33;1740208;81;20968;-57
2022/04/26 06:31:29;;;;;;;6.40;3.50;;;;;;;39.06;20.49;99638.46;1728952;82;20996;-61
2022/04/26 06:33:58;;;;;;;5.90;3.05;;;;;;;39.21;20.15;99640.59;1739586;82;20980;-60
2022/04/26 06:36:25;;;;;;;4.60;3.22;;;;;;;39.17;20.09;99640.59;1739738;82;20976;-56
2022/04/26 06:38:54;;;;;;;4.17;3.40;;;;;;;38.91;20.27;99642.37;1739515;82;21152;-56
2022/04/26 06:41:21;;;;;;;4.90;3.35;;;;;;;38.97;20.61;99644.88;1740064;81;21380;-58
2022/04/26 06:43:49;;;;;;;4.92;2.98;;;;;;;39.23;20.57;99645.05;1739501;82;20952;-64
2022/04/26 06:46:16;;;;;;;6.87;3.60;;;;;;;39.54;20.39;99653.58;1739874;81;21055;-57
2022/04/26 06:48:48;;;;;;;6.03;2.90;;;;;;;39.72;20.25;99646.74;1740049;82;22180;-62
2022/04/26 06:51:15;;;;;;;5.10;2.92;;;;;;;39.80;20.00;99651.77;1740008;81;22217;-57
2022/04/26 06:53:43;;;;;;;5.83;2.75;;;;;;;39.98;20.00;99653.66;1740315;82;21509;-57
2022/04/26 06:56:10;;;;;;;4.42;3.05;;;;;;;39.97;20.12;99654.81;1739695;82;21036;-58
2022/04/26 06:58:39;;;;;;;5.05;3.12;;;;;;;40.07;19.81;99653.98;1740433;81;20952;-55
2022/04/26 07:01:08;;;;;;;5.62;3.72;;;;;;;40.17;19.70;99650.47;1739633;81;20985;-56
2022/04/26 07:03:36;;;;;;;5.95;3.52;;;;;;;40.21;19.63;99647.12;1740395;82;21309;-56
2022/04/26 07:06:05;;;;;;;4.70;2.90;;;;;;;40.34;19.65;99644.10;1743248;81;21129;-56
2022/04/26 07:08:33;;;;;;;6.45;3.17;;;;;;;40.77;19.00;99641.11;1752931;81;21959;-63
2022/04/26 07:11:00;;;;;;;5.08;2.98;;;;;;;40.72;19.02;99640.16;1753533;81;21067;-56
2022/04/26 07:13:28;;;;;;;5.58;3.33;;;;;;;40.79;19.13;99648.30;1741754;81;21959;-55
2022/04/26 07:15:56;;;;;;;4.00;2.87;;;;;;;40.72;18.91;99645.63;1752793;81;21094;-62
2022/04/26 07:18:23;;;;;;;4.67;3.00;;;;;;;40.61;18.88;99643.56;1752871;81;21106;-56
2022/04/26 07:20:52;;;;;;;5.30;3.12;;;;;;;40.56;19.06;99648.88;1752577;81;20987;-57
2022/04/26 07:23:21;;;;;;;5.55;2.50;;;;;;;40.12;19.57;99645.41;1753697;81;21094;-55
2022/04/26 07:25:52;;;;;;;4.33;2.60;;;;;;;39.94;19.73;99650.94;1753745;81;21115;-55
2022/04/26 07:28:19;;;;;;;3.83;2.40;;;;;;;40.02;19.61;99648.95;1753270;81;21879;-63
2022/04/26 07:30:47;;;;;;;5.00;2.67;;;;;;;39.86;19.53;99650.20;1752793;81;23122;-62
2022/04/26 07:36:01;;;;;;;4.78;2.50;;;;;;;39.81;20.09;99647.86;1753964;81;20921;-56
2022/04/26 07:38:29;;;;;;;5.87;4.12;;;;;;;39.88;19.70;99647.83;1752739;81;21086;-57
2022/04/26 07:40:57;;;;;;;5.58;2.85;;;;;;;39.99;19.56;99642.33;1753745;81;22164;-56
2022/04/26 07:43:24;;;;;;;3.72;2.98;;;;;;;40.03;19.47;99646.41;1753224;81;21020;-56
2022/04/26 07:45:53;;;;;;;5.35;2.92;;;;;;;40.13;19.65;99649.12;1753488;81;20940;-57
2022/04/26 07:48:22;;;;;;;5.10;3.00;;;;;;;40.30;19.63;99646.67;1752798;81;21514;-63
2022/04/26 07:50:49;;;;;;;5.50;3.05;;;;;;;40.54;19.07;99645.75;1753663;81;21041;-55
2022/04/26 07:53:18;;;;;;;4.83;2.77;;;;;;;40.58;19.10;99644.39;1753860;81;22263;-57
2022/04/26 07:55:45;;;;;;;3.92;2.50;;;;;;;40.63;19.08;99644.55;1753836;81;20979;-55
2022/04/26 07:58:14;;;;;;;6.45;3.30;;;;;;;40.63;19.11;99645.91;1753666;81;20940;-57
2022/04/26 08:00:42;;;;;;;4.12;2.65;;;;;;;40.68;19.19;99641.38;1753934;81;21062;-56
2022/04/26 08:03:10;;;;;;;4.65;2.72;;;;;;;40.63;19.11;99639.85;1753996;81;20963;-56
2022/04/26 08:05:39;;;;;;;4.22;3.12;;;;;;;40.93;18.63;99636.48;1754468;81;21205;-56
2022/04/26 08:08:07;;;;;;;4.87;2.65;;;;;;;40.95;18.42;99634.70;1753854;80;20943;-56
2022/04/26 08:10:36;;;;;;;5.00;3.15;;;;;;;41.13;18.47;99639.44;1753320;81;20963;-55
2022/04/26 08:13:05;;;;;;;5.45;2.90;;;;;;;41.14;18.37;99630.05;1754064;81;21023;-55
2022/04/26 08:15:34;;;;;;;5.83;3.50;;;;;;;41.21;17.92;99625.88;1754149;81;21034;-55
2022/04/26 08:18:02;;;;;;;5.80;4.35;;;;;;;41.09;17.84;99629.91;1754326;81;21763;-57
2022/04/26 08:20:30;;;;;;;4.70;3.02;;;;;;;41.00;17.75;99628.84;1752802;81;21063;-59
2022/04/26 08:22:59;;;;;;;3.80;2.50;;;;;;;40.85;17.65;99626.20;1754350;81;21367;-58
2022/04/26 08:28:14;;;;;;;5.05;2.37;;;;;;;40.89;17.38;99617.20;1716874;83;21054;-60
2022/04/26 08:30:42;;;;;;;6.05;2.90;;;;;;;40.72;17.50;99619.66;1717794;83;21434;-55
2022/04/26 08:33:10;;;;;;;5.75;2.58;;;;;;;40.58;17.43;99623.30;1717717;83;20939;-56
2022/04/26 08:35:37;;;;;;;5.87;3.27;;;;;;;40.34;17.75;99620.89;1718022;83;21017;-56
2022/04/26 08:38:04;;;;;;;4.40;2.47;;;;;;;40.12;17.10;99623.00;1717977;83;21097;-63
2022/04/26 08:40:32;;;;;;;4.42;3.08;;;;;;;40.12;17.61;99624.36;1717176;83;21037;-61
2022/04/26 08:43:02;;;;;;;5.12;2.98;;;;;;;40.14;17.22;99617.12;1717953;83;21284;-57
2022/04/26 08:45:29;;;;;;;4.12;2.72;;;;;;;40.03;16.59;99616.38;1707037;83;21106;-56
2022/04/26 08:53:32;;;;;;;5.65;2.98;;;;;;;39.41;17.69;99624.01;1717644;83;21114;-56
2022/04/26 08:56:04;;;;;;;5.08;2.90;;;;;;;39.25;17.58;99621.50;1716973;83;22402;-57
2022/04/26 08:58:32;;;;;;;3.37;2.50;;;;;;;39.15;17.38;99611.57;1717888;83;20984;-57
2022/04/26 09:01:18;;;;;;;4.97;2.50;;;;;;;39.08;17.77;99615.67;1717908;83;21497;-58
2022/04/26 09:03:59;;;;;;;3.60;2.58;;;;;;;39.33;17.24;99612.94;1680750;84;21399;-55
2022/04/26 09:06:43;;;;;;;4.12;2.77;;;;;;;39.23;17.05;99613.70;1668420;84;21012;-56
2022/04/26 09:09:16;;;;;;;3.62;2.60;;;;;;;39.29;17.79;99614.89;1680944;84;21530;-56
2022/04/26 09:11:45;;;;;;;4.10;2.62;;;;;;;39.34;17.70;99610.98;1704686;84;20920;-55
2022/04/26 09:14:35;;;;;;;5.97;2.77;;;;;;;39.22;17.35;99615.47;1704398;84;21549;-55
2022/04/26 09:17:10;;;;;;;4.25;2.50;;;;;;;39.27;17.64;99619.95;1704037;84;21047;-58
2022/04/26 09:19:50;;;;;;;7.45;2.92;;;;;;;39.42;17.29;99612.52;1704502;84;21004;-57
2022/04/26 09:22:30;;;;;;;4.90;2.62;;;;;;;39.61;17.09;99610.69;1704066;84;21776;-58
2022/04/26 09:25:01;;;;;;;3.58;2.30;;;;;;;39.80;16.80;99602.66;1703719;83;21432;-56
2022/04/26 09:27:30;;;;;;;4.87;2.20;;;;;;;40.11;16.18;99597.41;1693027;84;21094;-58
2022/04/26 09:29:57;;;;;;;4.95;2.90;;;;;;;39.95;16.36;99605.31;1704007;84;21047;-56
2022/04/26 09:32:25;;;;;;;5.55;2.75;;;;;;;39.96;16.75;99601.41;1703383;84;21139;-56
2022/04/26 09:34:52;;;;;;;4.30;2.17;;;;;;;39.94;16.39;99598.31;1704734;84;21129;-57
2022/04/26 09:37:19;;;;;;;3.98;2.47;;;;;;;40.01;16.41;99604.51;1704163;84;22400;-57
2022/04/26 09:40:05;;;;;;;3.33;2.58;;;;;;;40.19;16.37;99604.41;1703433;84;21553;-59
2022/04/26 09:42:33;;;;;;;4.87;3.10;;;;;;;40.00;16.54;99610.34;1704622;84;21098;-56
2022/04/26 09:45:07;;;;;;;3.47;2.55;;;;;;;39.98;16.61;99604.53;1704538;84;21589;-57
2022/04/26 09:47:38;;;;;;;3.90;2.47;;;;;;;39.97;16.76;99599.66;1703463;84;21259;-56
2022/04/26 09:50:13;;;;;;;5.55;2.55;;;;;;;39.66;16.98;99598.59;1703963;84;21047;-56
2022/04/26 09:52:42;;;;;;;5.50;3.25;;;;;;;39.34;17.18;99596.75;1704111;84;21026;-56
2022/04/26 09:55:10;;;;;;;5.28;2.90;;;;;;;39.36;16.85;99598.52;1704097;84;20931;-64
2022/04/26 09:57:39;;;;;;;4.72;2.47;;;;;;;39.55;16.90;99596.48;1705065;84;21121;-60
2022/04/26 10:00:11;;;;;;;4.50;2.45;;;;;;;39.63;17.00;99599.40;1704346;84;21737;-56
2022/04/26 10:02:53;;;;;;;4.40;2.65;;;;;;;39.75;17.00;99598.21;1704575;82;20932;-56
2022/04/26 10:05:21;;;;;;;;;;;;;;;39.94;16.79;99596.95;1706889;84;21013;-57
2022/04/26 10:07:49;;;;;;;4.08;2.30;;;;;;;40.19;16.51;99592.72;1693136;84;20141;-56
2022/04/26 10:10:17;;;;;;;3.55;2.20;;;;;;;40.20;16.36;99596.44;1672928;84;21469;-56
2022/04/26 10:13:31;;;;;;;3.90;2.67;;;;;;;39.92;16.45;99596.55;1667894;84;21242;-60
2022/04/26 10:15:15;;;;;;;4.40;2.35;;;;;;;40.10;16.79;99595.88;1688810;84;21059;-57
2022/04/26 10:17:50;;;;;;;4.17;2.50;;;;;;;40.22;16.17;99596.79;1703395;83;21118;-57
2022/04/26 10:20:40;;;;;;;4.50;2.58;;;;;;;40.28;15.94;99589.73;1703866;84;21323;-59
2022/04/26 10:23:09;;;;;;;4.75;2.02;;;;;;;39.91;16.00;99584.09;1703914;83;21806;-57
2022/04/26 10:27:27;;;;;;;4.47;2.37;;;;;;;39.29;16.54;99584.13;1793422;78;28323;-56
2022/04/26 10:29:56;;;;;;;4.53;2.40;;;;;;;39.43;16.49;99584.06;1778352;80;21550;-62
2022/04/26 10:32:40;;;;;;;4.10;2.10;;;;;;;39.24;16.58;99582.56;1776996;80;21933;-57
2022/04/26 10:35:29;;;;;;;5.40;2.52;;;;;;;39.02;16.81;99575.56;1783103;80;21238;-60
2022/04/26 10:38:15;;;;;;;;;;;;;;;39.03;16.79;99581.23;1786727;80;21006;-56
2022/04/26 10:41:08;;;;;;;3.20;1.98;;;;;;;39.05;16.79;99578.28;1783354;80;20158;-60
2022/04/26 10:43:35;;;;;;;4.50;2.20;;;;;;;38.90;16.67;99576.75;1783761;80;21029;-57
2022/04/26 10:46:14;;;;;;;2.83;2.00;;;;;;;38.63;16.72;99579.86;1783431;80;21540;-63
2022/04/26 10:48:43;;;;;;;4.22;2.10;;;;;;;38.58;17.17;99580.84;1779413;80;21209;-57
2022/04/26 10:51:35;;;;;;;4.12;2.22;;;;;;;38.62;17.43;99582.39;1782985;80;20936;-56
2022/04/26 10:54:04;;;;;;;3.25;2.22;;;;;;;38.78;17.32;99580.63;1783226;80;21038;-57
2022/04/26 10:56:33;;;;;;;2.85;2.02;;;;;;;38.74;17.16;99575.77;1771407;80;20995;-65
2022/04/26 10:59:02;;;;;;;3.45;1.98;;;;;;;38.83;17.17;99572.11;1783774;80;21430;-57
2022/04/26 11:01:30;;;;;;;2.60;2.22;;;;;;;38.78;17.34;99565.65;1766609;80;21041;-57
2022/04/26 11:03:59;;;;;;;3.80;2.10;;;;;;;38.81;17.53;99572.30;1783065;80;20975;-57
2022/04/26 11:06:42;;;;;;;3.35;2.08;;;;;;;38.91;17.08;99564.12;1783142;80;21316;-65
2022/04/26 11:09:14;;;;;;;2.98;2.20;;;;;;;38.89;16.82;99565.67;1783465;80;20935;-58
2022/04/26 11:11:53;;;;;;;3.37;1.90;;;;;;;38.66;17.46;99568.77;1783418;80;21227;-57
2022/04/26 11:14:20;;;;;;;3.45;2.08;;;;;;;38.40;17.28;99569.34;1782303;80;20963;-59
2022/04/26 11:16:59;;;;;;;3.42;2.10;;;;;;;38.51;17.32;99565.86;1783744;80;21316;-55
2022/04/26 11:19:31;;;;;;;3.85;1.70;;;;;;;38.62;16.83;99561.19;1783124;80;21034;-56
2022/04/26 11:22:09;;;;;;;2.80;2.03;;;;;;;38.53;16.88;99561.59;1783373;80;21026;-57
2022/04/26 11:30:11;;;;;;;4.37;2.20;;;;;;;38.25;17.14;99552.00;1769563;80;22045;-65
2022/04/26 11:32:43;;;;;;;4.12;2.20;;;;;;;38.27;17.40;99548.32;1770643;80;21046;-57
2022/04/26 11:35:12;;;;;;;5.15;2.20;;;;;;;38.16;16.79;99551.80;1769348;80;20964;-57
2022/04/26 11:37:53;;;;;;;4.30;2.12;;;;;;;38.02;16.76;99549.63;1773146;80;21820;-65
2022/04/26 11:40:50;;;;;;;4.67;1.92;;;;;;;37.96;16.88;99545.13;1769290;80;21086;-56
2022/04/26 11:43:23;;;;;;;5.65;2.17;;;;;;;37.92;17.29;99547.07;1768621;80;21004;-65
2022/04/26 11:45:51;;;;;;;4.10;2.10;;;;;;;37.73;17.40;99559.03;1769596;80;21059;-56
2022/04/26 11:48:25;;;;;;;4.60;2.40;;;;;;;37.48;17.44;99548.08;1769575;80;21004;-56
2022/04/26 11:50:54;;;;;;;3.62;2.15;;;;;;;37.48;17.44;99548.08;1769591;80;21784;-58
2022/04/26 11:53:25;;;;;;;4.22;2.27;;;;;;;37.58;17.44;99545.19;1768420;80;20988;-64
2022/04/26 11:56:05;;;;;;;5.75;2.40;;;;;;;37.62;17.42;99544.06;1769832;80;21085;-58
2022/04/26 11:58:35;;;;;;;4.53;2.00;;;;;;;37.74;17.51;99536.13;1769995;80;21058;-57
2022/04/26 12:01:11;;;;;;;3.58;1.95;;;;;;;37.56;17.59;99534.70;1769612;80;21540;-65
2022/04/26 12:03:51;;;;;;;4.33;2.20;;;;;;;37.09;17.66;99538.31;1770606;80;21472;-57
2022/04/26 12:06:31;;;;;;;4.05;1.92;;;;;;;37.09;17.66;99538.31;1769954;80;21609;-59
2022/04/26 12:09:03;;;;;;;6.53;2.52;;;;;;;36.96;18.16;99539.99;1769652;80;21061;-57
2022/04/26 12:11:36;;;;;;;5.20;2.17;;;;;;;36.94;18.49;99540.97;1758390;80;21011;-56
2022/04/26 12:14:16;;;;;;;3.40;2.20;;;;;;;37.11;18.10;99529.22;1758396;80;21511;-56
2022/04/26 12:16:51;;;;;;;5.30;2.25;;;;;;;37.34;18.10;99532.44;1765699;80;21885;-56
2022/04/26 12:19:18;;;;;;;4.65;1.92;;;;;;;37.04;17.97;99536.74;1769155;80;21002;-58
2022/04/26 12:21:54;;;;;;;4.55;1.98;;;;;;;36.98;18.11;99539.05;1770117;80;21466;-56
2022/04/26 12:24:29;;;;;;;4.58;2.12;;;;;;;37.05;18.29;99537.52;1768262;80;21024;-61
2022/04/26 12:27:01;;;;;;;4.97;2.47;;;;;;;37.08;18.00;99536.18;1769759;80;20991;-57
2022/04/26 12:29:39;;;;;;;5.03;2.30;;;;;;;36.95;17.90;99533.59;1769681;80;22271;-56
2022/04/26 12:32:10;;;;;;;5.12;2.40;;;;;;;36.88;18.08;99545.16;1768826;80;21047;-64
2022/04/26 12:34:52;;;;;;;6.53;2.55;;;;;;;36.84;18.26;99534.84;1770190;80;21271;-59
2022/04/26 12:37:21;;;;;;;4.70;2.10;;;;;;;36.70;18.44;99534.74;1769839;80;21055;-56
2022/04/26 12:39:52;;;;;;;4.58;2.12;;;;;;;36.80;18.34;99537.34;1770025;80;20995;-61
2022/04/26 12:42:34;;;;;;;7.20;2.60;;;;;;;36.86;18.52;99536.63;1770031;80;22288;-55
2022/04/26 12:45:26;;;;;;;5.28;2.12;;;;;;;36.72;18.46;99527.78;1770384;80;21059;-56
2022/04/26 12:51:20;;;;;;;6.10;2.75;;;;;;;36.27;18.58;99539.80;1762650;80;20971;-62
2022/04/26 12:53:49;;;;;;;4.25;2.22;;;;;;;36.04;19.00;99535.89;1770168;80;21023;-57
2022/04/26 12:56:19;;;;;;;4.72;2.30;;;;;;;35.99;19.33;99542.44;1769189;80;21888;-56
2022/04/26 12:58:48;;;;;;;4.72;2.70;;;;;;;35.94;19.21;99539.23;1768678;80;21474;-66
2022/04/26 13:01:17;;;;;;;5.03;2.77;;;;;;;35.89;19.16;99538.22;1769333;80;22229;-58
2022/04/26 13:03:46;;;;;;;8.03;2.72;;;;;;;35.88;19.46;99541.52;1769861;80;21000;-57
2022/04/26 13:06:19;;;;;;;9.90;4.95;;;;;;;35.75;19.51;99536.13;1769149;80;20948;-64
2022/04/26 13:08:51;;;;;;;5.65;2.85;;;;;;;35.61;19.48;99531.30;1769381;80;21163;-56
2022/04/26 13:11:18;;;;;;;5.72;2.95;;;;;;;35.52;19.50;99534.30;1769074;80;21019;-56
2022/04/26 13:13:48;;;;;;;5.83;2.47;;;;;;;35.62;19.83;99536.17;1770110;80;20984;-55
2022/04/26 13:16:17;;;;;;;5.87;2.67;;;;;;;35.54;19.50;99534.73;1768950;80;21561;-56
2022/04/26 13:18:46;;;;;;;5.72;2.37;;;;;;;35.54;19.66;99533.38;1768868;80;21027;-62
2022/04/26 13:21:13;;;;;;;6.80;2.37;;;;;;;35.61;19.49;99530.52;1768891;80;21159;-57
2022/04/26 13:23:43;;;;;;;7.30;2.62;;;;;;;35.58;19.21;99534.19;1769730;80;20921;-56
2022/04/26 13:26:11;;;;;;;5.17;2.60;;;;;;;35.43;19.50;99534.36;1768798;80;21066;-56
2022/04/26 13:28:38;;;;;;;8.13;2.83;;;;;;;35.38;19.51;99532.73;1770213;80;21018;-56
2022/04/26 13:31:07;;;;;;;6.72;2.42;;;;;;;35.25;19.78;99529.48;1768444;80;21533;-56
2022/04/26 13:33:35;;;;;;;7.83;2.58;;;;;;;35.25;19.92;99524.64;1769696;80;22160;-58
2022/04/26 13:36:05;;;;;;;7.70;2.72;;;;;;;35.33;19.73;99537.13;1768532;80;21031;-57
2022/04/26 13:38:33;;;;;;;5.60;3.35;;;;;;;35.02;19.65;99533.61;1757805;80;21031;-56
2022/04/26 13:41:00;;;;;;;7.67;2.70;;;;;;;34.98;20.12;99534.11;1769513;80;21053;-63
2022/04/26 13:43:29;;;;;;;4.95;2.12;;;;;;;34.83;19.76;99529.63;1768861;80;21114;-57
2022/04/26 13:45:57;;;;;;;6.40;2.47;;;;;;;34.37;20.20;99530.98;1769132;80;21262;-57
2022/04/26 13:48:26;;;;;;;8.10;2.58;;;;;;;34.01;20.59;99527.63;1769229;80;21066;-56
2022/04/26 13:50:53;;;;;;;4.60;2.45;;;;;;;33.94;21.09;99523.41;1769409;80;21034;-57
2022/04/26 13:53:20;;;;;;;7.17;3.30;;;;;;;33.96;21.02;99522.50;1768603;80;20975;-57
2022/04/26 13:55:47;;;;;;;7.85;2.90;;;;;;;33.73;20.82;99523.02;1769615;80;21047;-57
2022/04/26 13:58:15;;;;;;;6.10;2.60;;;;;;;33.95;20.42;99518.23;1768396;80;22166;-59
2022/04/26 14:00:43;;;;;;;5.60;2.50;;;;;;;33.83;20.41;99522.42;1769212;80;21397;-56
2022/04/26 14:03:10;;;;;;;5.37;2.63;;;;;;;33.57;20.80;99520.39;1768926;80;20987;-65
2022/04/26 14:05:38;;;;;;;6.80;2.50;;;;;;;33.46;21.16;99521.52;1769461;80;21031;-56
2022/04/26 14:08:07;;;;;;;6.43;2.40;;;;;;;33.43;21.32;99522.20;1739719;80;20920;-66
2022/04/26 14:10:34;;;;;;;6.37;2.23;;;;;;;33.33;21.47;99522.17;1769296;80;21734;-58
2022/04/26 14:13:02;;;;;;;5.73;2.60;;;;;;;33.32;21.65;99523.89;1769902;80;21587;-56
2022/04/26 14:21:47;;;;;;;6.83;2.30;;;;;;;33.20;21.84;99523.45;1768681;80;21032;-56
2022/04/26 14:23:45;;;;;;;5.27;2.30;;;;;;;32.81;22.55;99521.19;1761984;80;21243;-56
2022/04/26 14:26:15;;;;;;;5.07;1.97;;;;;;;32.53;22.79;99522.05;1766544;80;20983;-57
2022/04/26 14:28:44;;;;;;;5.17;2.53;;;;;;;32.29;23.13;99523.55;1777115;80;21019;-64
2022/04/26 14:31:11;;;;;;;4.93;2.37;;;;;;;32.23;23.44;99527.04;1777244;80;21319;-56
2022/04/26 14:33:39;;;;;;;6.33;2.77;;;;;;;32.20;23.94;99525.84;1777192;80;21000;-56
2022/04/26 14:36:07;;;;;;;7.47;2.37;;;;;;;32.14;24.02;99521.04;1776647;80;21427;-56
2022/04/26 14:38:34;;;;;;;6.47;2.80;;;;;;;31.80;24.34;99521.05;1778278;80;21386;-62
2022/04/26 14:41:03;;;;;;;6.20;2.87;;;;;;;31.95;24.30;99515.73;1778119;80;21034;-58
2022/04/26 14:43:31;;;;;;;6.70;2.47;;;;;;;31.93;24.61;99519.32;1765528;80;20927;-65
2022/04/26 14:45:59;;;;;;;5.87;2.50;;;;;;;31.80;24.81;99514.31;1778392;80;21003;-57
2022/04/26 14:48:29;;;;;;;5.47;2.37;;;;;;;31.84;24.23;99514.63;1777934;80;21548;-57
2022/04/26 14:50:56;;;;;;;6.30;2.97;;;;;;;32.00;24.38;99513.91;1777239;80;20900;-56
2022/04/26 14:53:24;;;;;;;4.57;1.93;;;;;;;32.06;24.24;99518.72;1777027;80;21871;-64
2022/04/26 14:55:52;;;;;;;6.97;2.80;;;;;;;31.93;24.45;99516.62;1777185;80;21612;-56
2022/04/26 14:58:20;;;;;;;6.97;2.53;;;;;;;31.99;24.40;99509.09;1778210;80;22027;-58
2022/04/26 15:00:48;;;;;;;7.83;3.60;;;;;;;32.02;24.40;99517.84;1777173;80;21141;-57
2022/04/26 15:03:17;;;;;;;7.17;2.83;;;;;;;31.79;24.51;99522.19;1777586;80;21042;-57
2022/04/26 15:05:45;;;;;;;5.30;2.87;;;;;;;31.94;24.45;99527.65;1777835;80;20936;-58
2022/04/26 15:11:00;;;;;;;11.97;6.97;;;;;;;32.32;24.06;99515.55;1777021;80;21046;-56
2022/04/26 15:19:01;;;;;;;7.50;4.73;;;;;;;31.89;24.38;99519.02;1777884;80;21022;-57
2022/04/26 15:21:29;;;;;;;6.43;4.03;;;;;;;31.73;24.73;99523.76;1778305;80;21055;-56
2022/04/26 15:23:58;;;;;;;11.63;5.37;;;;;;;31.44;25.19;99526.77;1777849;80;21078;-56
2022/04/26 15:26:26;;;;;;;6.10;2.40;;;;;;;31.28;25.46;99529.91;1777231;80;21137;-57
2022/04/26 15:28:53;;;;;;;8.20;2.93;;;;;;;31.20;25.13;99531.05;1769926;80;21141;-61
2022/04/26 15:31:23;;;;;;;5.83;2.30;;;;;;;30.98;25.08;99526.13;1768657;80;21026;-56
2022/04/26 15:33:52;;;;;;;4.43;3.33;;;;;;;30.93;25.14;99532.52;1769547;80;21580;-55
2022/04/26 15:36:20;;;;;;;9.67;3.37;;;;;;;30.83;25.43;99529.49;1768949;80;21616;-61
2022/04/26 15:38:47;;;;;;;7.27;3.90;;;;;;;31.00;25.38;99527.93;1769743;80;21204;-57
2022/04/26 15:41:17;;;;;;;13.50;7.97;;;;;;;30.89;25.63;99532.19;1768403;80;22096;-56
2022/04/26 15:43:44;;;;;;;12.67;11.13;;;;;;;30.68;25.97;99535.72;1769643;80;21113;-55
2022/04/26 15:46:12;;;;;;;10.97;4.93;;;;;;;30.54;26.20;99544.70;1768487;80;20988;-56
2022/04/26 15:48:44;;;;;;;7.67;3.80;;;;;;;30.49;26.45;99542.98;1769288;80;20996;-64
2022/04/26 15:51:10;;;;;;;5.37;2.87;;;;;;;30.52;26.53;99546.92;1768343;80;21491;-56
2022/04/26 15:53:38;;;;;;;5.37;2.77;;;;;;;30.48;26.59;99543.33;1769560;80;20995;-59
2022/04/26 15:56:07;;;;;;;6.47;3.00;;;;;;;30.30;26.97;99551.56;1769361;80;21126;-56
2022/04/26 15:58:34;;;;;;;19.87;17.70;;;;;;;30.11;27.21;99553.94;1769981;80;20976;-56
2022/04/26 16:01:02;;;;;;;11.70;9.93;;;;;;;30.00;27.48;99551.43;1769150;80;21525;-56
2022/04/26 16:03:30;;;;;;;14.27;10.23;;;;;;;29.85;27.85;99557.41;1769758;80;21447;-56
2022/04/26 16:06:00;;;;;;;8.93;4.10;;;;;;;29.51;28.36;99560.02;1769975;80;21069;-56